Tiempo atmosférico en la estación meteorológica de Caravaca de La Cruz, Murcia (643 m.)



Fecha
DESCASC
Temp. máxima en grados centígrados (hora)
DESCASC
Temp. mínima en grados centígrados (hora)
DESCASC
Temp. media en grados centígrados
DESCASC
Racha de viento máxima en m/sg (hora)
DESCASC
Velocidad máxima media en intervalos de 10 minutos(hora)
DESCASC
Precipitaciones diarias en mm
DESCASC
Precipitaciones de 00:00 a 06:00 en mm
DESCASC
Precipitaciones de 06:00 a 12:00 en mm
DESCASC
Precipitaciones de 12:00 a 18:00 en mm
DESCASC
Precipitaciones de 18:00 a 24:00 en mm
DESCASC
16-01-2020 16.9 (14:40) 1.9 (07:40) 9.4 8.06 (23:50) 5.83 (05:20) 0 0 0 0 0
15-01-2020 16.2 (15:00) 0.8 (07:30) 8.5 9.44 (09:10) 6.39 (09:10) 0 0 0 0 0
14-01-2020 14.4 (13:40) -1.5 (06:10) 6.4 7.5 (05:10) 5.28 (05:30) 0 0 0 0 0
13-01-2020 13.1 (12:20) -0.5 (04:40) 6.3 6.67 (08:10) 5 (09:10) 0 0 0 0 0
12-01-2020 13.6 (15:20) 0 (00:00) 6.8 7.5 (09:30) 5.28 (09:30) 0 0 0 0 0
11-01-2020 11.8 (16:00) 2.3 (00:00) 7.1 6.67 (03:00) 4.17 (23:50) 0 0 0 0 0
10-01-2020 13.2 (12:30) 2 (00:00) 7.6 10.83 (13:50) 5.28 (13:50) 0 0 0 0 0
09-01-2020 13.4 (13:40) 0.3 (00:00) 6.8 6.67 (10:40) 3.89 (10:50) 0 0 0 0 0
08-01-2020 15.1 (12:50) 2.3 (00:00) 8.7 7.5 (01:10) 5 (03:00) 0 0 0 0 0
07-01-2020 15.9 (13:00) 0.3 (00:00) 8.1 6.39 (06:50) 4.72 (06:10) 0 0 0 0 0
06-01-2020 14.9 (13:40) -0.1 (00:00) 7.4 7.22 (23:50) 5 (23:50) 0 0 0 0 0
05-01-2020 13 (16:10) 0 (00:00) 6.5 6.39 (04:00) 4.44 (23:59) 0 0 0 0 0
04-01-2020 12.1 (12:50) -0.2 (00:00) 6 4.72 (09:40) 3.33 (09:40) 0 0 0 0 0
03-01-2020 15.6 (13:20) 0 (00:00) 7.8 6.39 (09:10) 3.61 (09:20) 0 0 0 0 0
02-01-2020 9 (13:50) -0.7 (-00:0) 4.2 5.28 (01:40) 3.33 (01:40) 0 0 0 0 0
01-01-2020 14.8 (13:20) -0.4 (00:00) 7.2 5.83 (02:20) 3.61 (02:20) 0 0 0 0 0
31-12-2019 10.4 (11:40) 0.1 (00:00) 5.2 5.56 (08:00) 3.89 (08:10) 0 0 0 0 0
30-12-2019 12.6 (16:10) 1.8 (00:00) 7.2 7.78 (12:10) 4.44 (12:10) 0 0 0 0 0
29-12-2019 13.2 (15:30) 1.6 (00:00) 7.4 7.78 (12:10) 5.28 (02:00) 0 0 0 0 0
28-12-2019 18.9 (13:50) 2.4 (00:00) 10.6 6.67 (12:20) 4.17 (11:40) 0 0 0 0 0
27-12-2019 15.6 (13:00) 5 (00:00) 10.3 7.22 (23:59) 4.72 (23:10) 0 0 0 0 0
26-12-2019 20.7 (12:10) 6.4 (00:00) 13.6 7.22 (06:10) 3.89 (06:20) 0 0 0 0 0
25-12-2019 18.4 (12:30) 3.2 (00:00) 10.8 8.06 (04:30) 5.28 (04:30) 0 0 0 0 0
24-12-2019 20.2 (15:20) 3.9 (00:00) 12.1 8.06 (04:30) 5.83 (05:50) 0 0 0 0 0
23-12-2019 20.5 (13:40) 7 (00:00) 13.8 10 (07:30) 6.39 (07:50) 0 0 0 0 0
22-12-2019 19.1 (14:30) 9.6 (00:00) 14.4 24.72 (00:50) 11.11 (00:20) 0 0 0 0 0
21-12-2019 22.1 (15:50) 11.5 (00:00) 16.8 20.28 (23:40) 10.28 (23:59) 0 0 0 0 0
20-12-2019 16.4 (12:30) 12.5 (00:00) 14.4 17.78 (10:40) 9.17 (10:30) 1.8 0 1.4 0.4 0

Gráficas

Temp. máximas Temp. mínimas Temp. medias Precipitaciones Rachas de viento máximas Velocidades máximas media en intervalos de 10 minutos

Datos horarios

Fecha y hora oficial Temperatura (ºC) Velocidad del viento (km/h) Dirección del viento Racha (km/h) Dirección de racha Precipitación (mm) Presión (hPa) Tendencia (hPa) Humedad (%)
2020-01-18 23:00:00 9.5 8 Sur 18 Sur 0 945.9 -2.2 80
2020-01-18 22:00:00 9.7 16 Sudoeste 28 Sudoeste 0 946.6 -2 77
2020-01-18 21:00:00 6.6 6 Oeste 14 Sudoeste 0 947.1 -1.9 83
2020-01-18 20:00:00 9.8 11 Sudoeste 25 Sudoeste 0 948.1 -1.9 73
2020-01-18 19:00:00 10.4 10 Sudoeste 28 Sudoeste 0 948.6 -1.9 70
2020-01-18 18:00:00 11.5 17 Sudoeste 28 Sudoeste 0 949 -2.1 65
2020-01-18 17:00:00 12.8 11 Sudoeste 27 Oeste 0 950 -2.5 60
2020-01-18 16:00:00 13.3 13 Sudoeste 24 Sudoeste 0 950.5 -3.5 56
2020-01-18 15:00:00 12.4 16 Sudoeste 26 Sudoeste 0 951.1 -4.6 59
2020-01-18 14:00:00 11.6 13 Sudoeste 23 Sudoeste 0 952.5 -3.9 59
2020-01-18 13:00:00 10.8 8 Sudoeste 15 Sur 0 954 -2.5 65
2020-01-18 12:00:00 9.2 6 Sudoeste 10 Sudoeste 0 955.7 0 70
2020-01-18 11:00:00 7.3 9 Oeste 19 Oeste 0.2 956.4 1.4 80
2020-01-18 10:00:00 7.2 6 Sudoeste 11 Sudoeste 0 956.5 2.1 69
2020-01-18 09:00:00 6 3 Noroeste 8 Oeste 0 955.7 1.6 75
2020-01-18 08:00:00 6.2 4 Oeste 9 Sudoeste 0 955 0.6 72
2020-01-18 07:00:00 6.9 4 Sudoeste 14 Sudoeste 0 954.4 -0.9 68
2020-01-18 06:00:00 7.1 8 Sudoeste 17 Sudoeste 0 954.1 -1.6 65
2020-01-18 05:00:00 6.4 15 Sudoeste 24 Sudoeste 0 954.4 -2.4 67
2020-01-18 04:00:00 5.8 5 Oeste 18 Oeste 0 955.3 -1.7 69
2020-01-18 03:00:00 6.5 11 Oeste 22 Oeste 0 955.7 -1.7 65
2020-01-18 02:00:00 5.8 5 Sur 17 Oeste 0 956.8 0 70
2020-01-18 01:00:00 6.3 14 Oeste 23 Oeste 0 957 0.5 65
2020-01-18 00:00:00 6.8 8 Oeste 15 Oeste 0 957.4 1.3 65
2020-01-17 23:00:00 7.6 4 Sudoeste 21 Oeste 0 956.8 1 62
2020-01-17 22:00:00 7.2 9 Oeste 18 Oeste 0 956.5 0.9 64
2020-01-17 21:00:00 7.6 6 Oeste 12 Oeste 0 956.1 1.7 65
2020-01-17 20:00:00 8.4 8 Noroeste 13 Noroeste 0 955.8 1.6 61
2020-01-17 19:00:00 9 5 Noroeste 8 Noroeste 0 955.6 1.7 64
2020-01-17 18:00:00 13 2 Sudeste 10 Sudeste 0 954.4 0.6 51
2020-01-17 17:00:00 15.4 4 Sudoeste 16 Sudeste 0 954.2 0 44
2020-01-17 16:00:00 16.6 4 Sudeste 14 Nordeste 0 953.9 -1.4 31
2020-01-17 15:00:00 16.9 6 Sudeste 16 Sur 0 953.8 -2.1 33
2020-01-17 14:00:00 16.8 7 Norte 26 Norte 0 954.2 -1.7 32
2020-01-17 13:00:00 17.1 10 Oeste 25 Sudoeste 0 955.3 0.5 33
2020-01-17 12:00:00 15.9 8 Sur 26 Sudoeste 0 955.9 1.4 36
2020-01-17 11:00:00 14.6 7 Sur 19 Sur 0 955.9 1.8 38
2020-01-17 10:00:00 10 3 Sudeste 10 Norte 0 954.8 1.2 50
2020-01-17 09:00:00 5.1 5 Sur 13 Sur 0 954.5 1.3 63
2020-01-17 08:00:00 2.6 3 Norte 13 Sur 0 954.1 0.7 72
2020-01-17 07:00:00 5 4 Sudeste 20 Sudoeste 0 953.6 -0.1 64
2020-01-17 06:00:00 6.4 12 Sudoeste 20 Sudoeste 0 953.2 -0.3 59
2020-01-17 05:00:00 7.1 13 Sudoeste 20 Sudoeste 0 953.4 -0.1 56
2020-01-17 04:00:00 5.6 13 Oeste 23 Oeste 0 953.7 0.2 59
2020-01-17 03:00:00 5 14 Oeste 23 Oeste 0 953.5 -0.2 58
2020-01-17 02:00:00 4.8 12 Oeste 26 Oeste 0 953.5 0 59
2020-01-17 01:00:00 4.1 12 Oeste 21 Oeste 0 953.5 0.4 62
2020-01-17 00:00:00 4.3 17 Oeste 29 Oeste 0 953.7 0.9 62
2020-01-16 23:00:00 5.7 12 Oeste 24 Oeste 0 953.5 0.9 58
2020-01-16 22:00:00 5.9 17 Oeste 25 Oeste 0 953.1 1.1 58
2020-01-16 21:00:00 7.3 6 Sudoeste 15 Sudoeste 0 952.8 1.2 61
2020-01-16 20:00:00 8.5 8 Oeste 13 Noroeste 0 952.6 1.3 57
2020-01-16 19:00:00 8.7 6 Noroeste 10 Noroeste 0 952 1.1 58
2020-01-16 18:00:00 11.8 3 Norte 17 Nordeste 0 951.6 0.5 50
2020-01-16 17:00:00 14.2 10 Nordeste 21 Nordeste 0 951.3 -0.4 42
2020-01-16 16:00:00 16.9 8 Sudoeste 19 Sur 0 950.9 -1.7 21
2020-01-16 15:00:00 16.5 8 Sur 17 Sur 0 951.1 -2.4 28
2020-01-16 14:00:00 16.7 7 Sur 19 Sur 0 951.7 -2.1 31
2020-01-16 13:00:00 15.9 5 Este 11 Sudeste 0 952.6 -1 31
2020-01-16 12:00:00 14.8 3 Este 12 Sudoeste 0 953.5 0.2 32
2020-01-16 11:00:00 11.2 9 Sudoeste 16 Sudoeste 0 953.8 0.6 45
2020-01-16 10:00:00 6.9 10 Oeste 19 Oeste 0 953.6 0.7 55
2020-01-16 09:00:00 3.4 12 Oeste 24 Oeste 0 953.3 0.7 64
2020-01-16 08:00:00 2.1 10 Oeste 21 Oeste 0 953.2 0.1 69
2020-01-16 07:00:00 2.8 12 Oeste 25 Oeste 0 952.9 -0.3 64
2020-01-16 06:00:00 3 18 Oeste 26 Oeste 0 952.6 -0.4 63
2020-01-16 05:00:00 3 14 Oeste 22 Oeste 0 953.1 0.3 64
2020-01-16 04:00:00 3 8 Oeste 22 Oeste 0 953.2 0.2 65
2020-01-16 03:00:00 3.6 13 Oeste 22 Oeste 0 953 -0.1 61
2020-01-16 02:00:00 4 13 Oeste 23 Oeste 0 952.8 -0.2 59
2020-01-16 01:00:00 3.6 10 Oeste 21 Oeste 0 953 0.2 62
2020-01-16 00:00:00 4.5 8 Oeste 26 Sudoeste 0 953.1 0.6 58
2020-01-15 23:00:00 5.7 13 Oeste 21 Oeste 0 953 0.6 53
2020-01-15 22:00:00 7 13 Oeste 22 Oeste 0 952.8 1 50
2020-01-15 21:00:00 8.4 10 Oeste 17 Oeste 0 952.5 1.3 51
2020-01-15 20:00:00 9.3 10 Oeste 17 Oeste 0 952.4 1.8 48
2020-01-15 19:00:00 10.3 9 Oeste 17 Sudoeste 0 951.8 1.5 48
2020-01-15 18:00:00 11.6 7 Noroeste 12 Noroeste 0 951.2 1.1 47
2020-01-15 17:00:00 14.6 8 Este 14 Este 0 950.6 0.2 36
2020-01-15 16:00:00 15.4 8 Nordeste 19 Nordeste 0 950.3 -0.8 33
2020-01-15 15:00:00 16 7 Sudeste 18 Sudeste 0 950.1 -1.3 33
2020-01-15 14:00:00 15.4 9 Sur 24 Sur 0 950.4 -1.2 36
2020-01-15 13:00:00 13.1 14 Sudoeste 26 Sudoeste 0 951.1 0.3 42
2020-01-15 12:00:00 11 17 Sudoeste 26 Oeste 0 951.4 1 47
2020-01-15 11:00:00 8.2 11 Sudoeste 30 Oeste 0 951.6 1.8 55
2020-01-15 10:00:00 3.2 21 Oeste 34 Oeste 0 950.8 1.7 67
2020-01-15 09:00:00 1.1 20 Oeste 31 Oeste 0 950.4 1.8 71
2020-01-15 08:00:00 1.2 18 Oeste 28 Oeste 0 949.8 1.3 69
2020-01-15 07:00:00 1.1 17 Oeste 27 Oeste 0 949.1 0.4 68
2020-01-15 06:00:00 1.2 15 Oeste 27 Sudoeste 0 948.6 0 66
2020-01-15 05:00:00 1.4 13 Oeste 26 Oeste 0 948.5 0.2 62
2020-01-15 04:00:00 1.5 11 Oeste 23 Oeste 0 948.7 -0.1 63
2020-01-15 03:00:00 2 12 Oeste 24 Sudoeste 0 948.6 -0.2 62
2020-01-15 02:00:00 2.6 15 Oeste 24 Oeste 0 948.3 -0.4 64
2020-01-15 01:00:00 2.8 12 Oeste 20 Oeste 0 948.8 0.5 64
2020-01-15 00:00:00 3.7 10 Oeste 18 Oeste 0 948.8 0.6 62
2020-01-14 23:00:00 3.7 12 Oeste 20 Sudoeste 0 948.7 0.9 62
2020-01-14 22:00:00 4.1 9 Oeste 24 Oeste 0 948.3 0.8 60
2020-01-14 21:00:00 5.1 14 Oeste 21 Oeste 0 948.2 1.4 56
2020-01-14 20:00:00 5 3 Oeste 12 Oeste 0 947.8 1.4 58
2020-01-14 19:00:00 5.7 6 Oeste 12 Noroeste 0 947.5 1.2 57
2020-01-14 18:00:00 7.7 4 Noroeste 10 Nordeste 0 946.8 0.7 52
2020-01-14 17:00:00 11 6 Nordeste 15 Nordeste 0 946.4 -0.1 37
2020-01-14 16:00:00 11.7 6 Nordeste 14 Nordeste 0 946.3 -1.1 34
2020-01-14 15:00:00 11.7 6 Nordeste 16 Este 0 946.1 -2.2 33
2020-01-14 14:00:00 12.6 9 Este 19 Este 0 946.5 -2.1 33
2020-01-14 13:00:00 13.7 6 Sur 17 Sudoeste 0 947.4 -1.1 30
2020-01-14 12:00:00 11.9 6 Sur 19 Sudoeste 0 948.3 -0.1 30
2020-01-14 11:00:00 7.8 12 Oeste 23 Sudoeste 0 948.6 0.4 37
2020-01-14 10:00:00 3.7 13 Sudoeste 22 Oeste 0 948.5 0.7 43
2020-01-14 09:00:00 1 13 Oeste 21 Oeste 0 948.4 0.9 46
2020-01-14 08:00:00 0.7 9 Oeste 17 Oeste 0 948.2 1.1 61
2020-01-14 07:00:00 0.4 8 Oeste 18 Oeste 0 947.8 0.5 63
2020-01-14 06:00:00 -1.1 5 Oeste 27 Oeste 0 947.5 -0.2 69
2020-01-14 05:00:00 0.8 11 Oeste 26 Oeste 0 947.1 -0.8 58
2020-01-14 04:00:00 0.6 18 Oeste 26 Oeste 0 947.3 -1 64
2020-01-14 03:00:00 1.6 13 Oeste 21 Oeste 0 947.7 -0.8 64
2020-01-14 02:00:00 2.4 8 Oeste 22 Oeste 0 947.9 -0.7 63
2020-01-14 01:00:00 2.7 9 Sudoeste 22 Sudoeste 0 948.3 -0.2 63
2020-01-14 00:00:00 3.4 12 Oeste 24 Oeste 0 948.5 -0.5 61
2020-01-13 23:00:00 3.6 11 Sudoeste 21 Sudoeste 0 948.6 -0.3 62
2020-01-13 22:00:00 4.5 11 Oeste 19 Oeste 0 948.5 -0.3 60
2020-01-13 21:00:00 4.4 4 Oeste 12 Oeste 0 949 0.9 66
2020-01-13 20:00:00 4.6 5 Oeste 9 Oeste 0 948.9 0.8 68
2020-01-13 19:00:00 5.8 3 Norte 9 Noroeste 0 948.8 0.6 67
2020-01-13 18:00:00 9.2 3 Noroeste 7 Noroeste 0 948.1 -0.5 56
2020-01-13 17:00:00 11.8 3 Este 9 Sudeste 0 948.1 -1.1 41
2020-01-13 16:00:00 12.2 5 Este 11 Este 0 948.2 -2.1 39
2020-01-13 15:00:00 12.2 7 Este 13 Este 0 948.6 -2.6 40
2020-01-13 14:00:00 12 5 Este 15 Este 0 949.2 -2.4 41
2020-01-13 13:00:00 12.3 8 Este 15 Este 0 950.3 -1.2 40
2020-01-13 12:00:00 12.4 7 Sudoeste 18 Sudoeste 0 951.2 -0.1 36
2020-01-13 11:00:00 9.3 9 Sudoeste 17 Sudoeste 0 951.6 0.2 37
2020-01-13 10:00:00 4.3 12 Oeste 24 Oeste 0 951.5 0.2 49
2020-01-13 09:00:00 0.5 12 Oeste 24 Oeste 0 951.3 0 63
2020-01-13 08:00:00 -0.1 15 Oeste 23 Oeste 0 951.4 -0.6 67
2020-01-13 07:00:00 -0.3 12 Oeste 22 Oeste 0 951.3 -1.1 71
2020-01-13 06:00:00 0 14 Oeste 20 Oeste 0 951.3 -1.5 70
2020-01-13 05:00:00 0.1 10 Oeste 17 Oeste 0 952 -1.1 72
2020-01-13 04:00:00 0.5 10 Oeste 19 Oeste 0 952.4 -1.4 69
2020-01-13 03:00:00 0.9 12 Oeste 24 Oeste 0 952.8 -1.6 67
2020-01-13 02:00:00 1.4 16 Oeste 24 Oeste 0 953.1 -1.5 65
2020-01-13 01:00:00 1.1 8 Oeste 22 Sudoeste 0 953.8 -0.6 67
2020-01-13 00:00:00 2 12 Sudoeste 18 Sudoeste 0 954.4 0.4 64
2020-01-12 23:00:00 2.6 10 Oeste 17 Oeste 0 954.6 0.6 62
2020-01-12 22:00:00 2.7 2 Oeste 8 Sudoeste 0 954.4 1 63
2020-01-12 21:00:00 5.4 8 Oeste 14 Oeste 0 954 1.1 50
2020-01-12 20:00:00 4.6 2 Oeste 7 Norte 0 954 1.5 55
2020-01-12 19:00:00 6.1 3 Noroeste 8 Noroeste 0 953.4 1.1 52
2020-01-12 18:00:00 9.8 4 Norte 16 Nordeste 0 952.9 0.6 44
2020-01-12 17:00:00 12.7 11 Este 21 Este 0 952.5 -0.4 32
2020-01-12 16:00:00 13.4 9 Nordeste 24 Este 0 952.3 -1.5 30
2020-01-12 15:00:00 13.4 10 Este 23 Nordeste 0 952.3 -2.4 31
2020-01-12 14:00:00 13.1 7 Sudeste 13 Este 0 952.9 -2 36
2020-01-12 13:00:00 13.1 7 Este 15 Este 0 953.8 -0.8 34
2020-01-12 12:00:00 12.7 4 Sur 14 Sudoeste 0 954.7 0.3 35
2020-01-12 11:00:00 9.4 9 Oeste 22 Oeste 0 954.9 0.6 43
2020-01-12 10:00:00 4.8 17 Oeste 27 Oeste 0 954.6 0.6 57
2020-01-12 09:00:00 2.2 13 Oeste 22 Oeste 0 954.4 0.3 66
2020-01-12 08:00:00 0.8 14 Oeste 26 Oeste 0 954.3 0 72
2020-01-12 07:00:00 0.7 8 Oeste 24 Oeste 0 954 -0.6 74
2020-01-12 06:00:00 1.3 13 Oeste 22 Oeste 0 954.1 -0.6 70
2020-01-12 05:00:00 1.1 10 Oeste 18 Oeste 0 954.3 -0.2 73
2020-01-12 04:00:00 0.4 4 Oeste 22 Sudoeste 0 954.6 -0.2 76
2020-01-12 03:00:00 1.7 10 Oeste 20 Oeste 0 954.7 -0.5 70
2020-01-12 02:00:00 1.3 7 Oeste 19 Sudoeste 0 954.5 -0.8 76
2020-01-12 01:00:00 2.1 10 Oeste 22 Oeste 0 954.8 -0.3 70
2020-01-12 00:00:00 2.3 15 Oeste 22 Sudoeste 0 955.2 0.4 70
2020-01-11 23:00:00 2.9 12 Sudoeste 18 Sudoeste 0 955.3 0.5 69
2020-01-11 22:00:00 3.7 10 Oeste 22 Oeste 0 955.1 0.9 66
2020-01-11 21:00:00 4.8 8 Oeste 13 Oeste 0 954.8 0.9 63
2020-01-11 20:00:00 5.7 6 Oeste 12 Sudoeste 0 954.8 1.2 59
2020-01-11 19:00:00 6.6 6 Noroeste 11 Noroeste 0 954.2 0.8 58
2020-01-11 18:00:00 8.5 4 Noroeste 10 Nordeste 0 953.9 0.3 56
2020-01-11 17:00:00 11.2 7 Nordeste 15 Nordeste 0 953.6 -0.5 43
2020-01-11 16:00:00 11.6 9 Este 17 Este 0 953.4 -1.5 43
2020-01-11 15:00:00 11.6 9 Nordeste 22 Nordeste 0 953.6 -2.1 43
2020-01-11 14:00:00 11.5 10 Nordeste 24 Este 0 954.1 -1.4 46
2020-01-11 13:00:00 11.6 13 Este 22 Nordeste 0 954.9 -0.1 47
2020-01-11 12:00:00 10.9 10 Nordeste 20 Nordeste 0 955.7 1.3 49
2020-01-11 11:00:00 11.1 5 Sudeste 10 Este 0 955.5 1.5 52
2020-01-11 10:00:00 8.8 0 Calma 6 Oeste 0 955 1.3 59
2020-01-11 09:00:00 3.9 4 Oeste 5 Oeste 0 954.4 1.2 81
2020-01-11 08:00:00 5 3 Nordeste 8 Sudoeste 0 954 0.9 75
2020-01-11 07:00:00 5.3 3 Oeste 15 Noroeste 0 953.7 0.6 74
2020-01-11 06:00:00 6.8 8 Norte 18 Nordeste 0 953.2 0.4 66
2020-01-11 05:00:00 7.9 6 Nordeste 18 Norte 0 953.1 0.7 56
2020-01-11 04:00:00 8 5 Nordeste 21 Nordeste 0 953.1 0.3 57
2020-01-11 03:00:00 8 11 Norte 24 Norte 0 952.8 -0.5 56
2020-01-11 02:00:00 7.1 9 Norte 23 Noroeste 0 952.4 -0.7 62
2020-01-11 01:00:00 6.5 6 Nordeste 18 Nordeste 0 952.8 0.2 69
2020-01-11 00:00:00 4.5 5 Sudoeste 9 Nordeste 0 953.3 1.3 76
2020-01-10 23:00:00 4.8 3 Sur 10 Nordeste 0 953.1 2.3 73
2020-01-10 22:00:00 5.9 6 Nordeste 17 Norte 0 952.6 2.1 67
2020-01-10 21:00:00 6.8 12 Este 32 Norte 0 952 2.4 60
2020-01-10 20:00:00 8.8 17 Norte 30 Norte 0 950.8 1.1 45
2020-01-10 19:00:00 7.8 8 Norte 18 Noroeste 0 950.5 1.2 50
2020-01-10 18:00:00 8.6 2 Norte 15 Norte 0 949.6 0.7 52
2020-01-10 17:00:00 10.4 10 Norte 26 Nordeste 0 949.7 0.9 45
2020-01-10 16:00:00 11.1 13 Nordeste 38 Nordeste 0 949.3 -0.2 42
2020-01-10 15:00:00 12.4 10 Norte 28 Norte 0 948.9 -1.4 40
2020-01-10 14:00:00 12.3 17 Norte 39 Norte 0 948.8 -1.7 49
2020-01-10 13:00:00 10.9 10 Norte 35 Norte 0 949.5 -0.1 54
2020-01-10 12:00:00 12.4 8 Sur 15 Sur 0 950.3 1.3 55
2020-01-10 11:00:00 9.5 9 Este 18 Este 0 950.5 1.8 59
2020-01-10 10:00:00 7.4 3 Este 7 Noroeste 0 949.6 0.7 68
2020-01-10 09:00:00 3.7 3 Noroeste 22 Oeste 0 949 0.1 76
2020-01-10 08:00:00 4.2 10 Oeste 22 Oeste 0 948.7 0.2 72
2020-01-10 07:00:00 4 7 Sudoeste 18 Oeste 0 948.9 0.2 75
2020-01-10 06:00:00 2.4 4 Sudoeste 17 Oeste 0 948.9 -0.1 81
2020-01-10 05:00:00 5.1 12 Oeste 21 Oeste 0 948.5 -0.3 70
2020-01-10 04:00:00 4.3 9 Sudoeste 21 Oeste 0 948.7 -0.7 74
2020-01-10 03:00:00 2.6 3 Noroeste 17 Oeste 0 949 -1.2 83
2020-01-10 02:00:00 4.4 9 Oeste 23 Sudoeste 0 948.8 -1.2 75
2020-01-10 01:00:00 5.5 11 Oeste 17 Oeste 0 949.4 -0.5 75
2020-01-10 00:00:00 4.6 5 Oeste 15 Sudoeste 0 950.2 -0.3 80
2020-01-09 23:00:00 5.7 7 Sudoeste 18 Oeste 0 950 -1 79
2020-01-09 22:00:00 7.9 10 Oeste 22 Oeste 0 949.9 -0.3 78
2020-01-09 21:00:00 7 9 Oeste 15 Oeste 0 950.5 0.6 78
2020-01-09 20:00:00 5.9 2 Noroeste 8 Noroeste 0 951 1 83
2020-01-09 19:00:00 6.8 2 Oeste 10 Noroeste 0 950.2 0.2 78
2020-01-09 18:00:00 9.2 5 Noroeste 9 Este 0 949.9 -0.4 72
2020-01-09 17:00:00 11.5 6 Este 12 Este 0 950 -0.8 62
2020-01-09 16:00:00 12 8 Este 15 Este 0 950 -1.7 59
2020-01-09 15:00:00 12.3 7 Este 18 Este 0 950.3 -2.4 58
2020-01-09 14:00:00 12.9 7 Este 15 Este 0 950.8 -2.3 55
2020-01-09 13:00:00 12.7 5 Sudeste 18 Sudoeste 0 951.7 -1.3 55
2020-01-09 12:00:00 10.3 9 Sudoeste 18 Sudoeste 0 952.7 -0.1 62
2020-01-09 11:00:00 8 12 Sudoeste 24 Sudoeste 0 953.1 0.3 72
2020-01-09 10:00:00 5.6 12 Oeste 18 Sudoeste 0 953 0.3 82
2020-01-09 09:00:00 4.2 8 Sudoeste 14 Oeste 0 952.8 -0.1 85
2020-01-09 08:00:00 1.6 10 Sudoeste 13 Sudoeste 0 952.8 -0.1 87
2020-01-09 07:00:00 0.7 5 Oeste 13 Sudoeste 0 952.7 -0.6 87
2020-01-09 06:00:00 1.2 6 Oeste 16 Oeste 0 952.9 -0.9 83
2020-01-09 05:00:00 2 13 Oeste 18 Oeste 0 952.9 -0.9 80
2020-01-09 04:00:00 2 4 Sudoeste 15 Oeste 0 953.3 -0.7 81
2020-01-09 03:00:00 3.2 10 Oeste 21 Sudoeste 0 953.8 -0.8 76
2020-01-09 02:00:00 2.3 8 Oeste 17 Sudoeste 0 953.8 -0.8 81
2020-01-09 01:00:00 3 9 Sudoeste 14 Oeste 0 954 -0.6 76
2020-01-09 00:00:00 2.4 5 Oeste 12 Noroeste 0 954.6 0.2 78
2020-01-08 23:00:00 2.9 4 Noroeste 8 Noroeste 0 954.6 0.5 74
2020-01-08 22:00:00 3.5 3 Oeste 15 Sudoeste 0 954.6 0.5 69
2020-01-08 21:00:00 3.6 3 Oeste 5 Oeste 0 954.4 0.6 70
2020-01-08 20:00:00 5.3 5 Oeste 9 Oeste 0 954.1 0.6 65
2020-01-08 19:00:00 6.7 5 Noroeste 9 Norte 0 954.1 1.1 62
2020-01-08 18:00:00 10 4 Norte 14 Nordeste 0 953.8 0.7 53
2020-01-08 17:00:00 12.3 8 Nordeste 19 Este 0 953.5 0.3 42
2020-01-08 16:00:00 13.5 11 Este 21 Sudeste 0 953 -0.5 36
2020-01-08 15:00:00 14.2 10 Este 19 Nordeste 0 953.1 -0.9 30
2020-01-08 14:00:00 14.4 10 Este 19 Este 0 953.2 -1 30
2020-01-08 13:00:00 14.7 8 Este 12 Este 0 953.5 -0.3 28
2020-01-08 12:00:00 14 6 Este 10 Este 0 954 0.8 29
2020-01-08 11:00:00 12.6 3 Este 8 Oeste 0 954.2 1.5 31
2020-01-08 10:00:00 9.4 3 Sudoeste 24 Oeste 0 953.8 1.1 36
2020-01-08 09:00:00 4.8 15 Oeste 24 Oeste 0 953.2 0.4 46
2020-01-08 08:00:00 4.1 12 Oeste 23 Oeste 0 952.7 -0.2 47
2020-01-08 07:00:00 4.2 17 Oeste 25 Oeste 0 952.7 -0.3 48
2020-01-08 06:00:00 4.8 13 Oeste 24 Oeste 0 952.8 -0.4 46
2020-01-08 05:00:00 3.8 9 Oeste 24 Oeste 0 952.9 -0.4 51
2020-01-08 04:00:00 4 15 Oeste 26 Oeste 0 953 -0.6 52
2020-01-08 03:00:00 4.4 18 Oeste 27 Oeste 0 953.2 -0.8 51
2020-01-08 02:00:00 5.3 12 Oeste 27 Oeste 0 953.3 -0.8 48
2020-01-08 01:00:00 5.5 14 Oeste 26 Oeste 0 953.6 -0.5 50
2020-01-08 00:00:00 5.9 14 Oeste 20 Oeste 0 954 -0.1 50
2020-01-07 23:00:00 5.1 7 Oeste 18 Sudoeste 0 954.1 0 57
2020-01-07 22:00:00 5.3 8 Oeste 18 Sudoeste 0 954.1 0.2 58
2020-01-07 21:00:00 6.5 8 Oeste 19 Oeste 0 954.1 0.5 55
2020-01-07 20:00:00 6.4 4 Oeste 9 Oeste 0 954.1 0.9 58
2020-01-07 19:00:00 7.5 5 Noroeste 12 Noroeste 0 953.9 0.8 56
2020-01-07 18:00:00 9.8 5 Noroeste 8 Noroeste 0 953.6 0.2 51
2020-01-07 17:00:00 14.6 2 Nordeste 6 Sudeste 0 953.2 -0.8 31
2020-01-07 16:00:00 15 4 Este 11 Este 0 953.1 -1.8 26
2020-01-07 15:00:00 15.2 7 Este 12 Este 0 953.4 -2.2 28
2020-01-07 14:00:00 15.5 5 Este 13 Sudeste 0 954 -1.9 27
2020-01-07 13:00:00 15.7 5 Este 9 Este 0 954.9 -0.5 24
2020-01-07 12:00:00 14.6 3 Sudeste 6 Este 0 955.6 0.6 28
2020-01-07 11:00:00 12.2 3 Este 15 Oeste 0 955.9 1.1 36
2020-01-07 10:00:00 8.2 11 Oeste 20 Sudoeste 0 955.4 0.9 38
2020-01-07 09:00:00 4.4 12 Oeste 20 Oeste 0 955 0.5 47
2020-01-07 08:00:00 0.4 2 Noroeste 17 Sudoeste 0 954.8 -0.1 71
2020-01-07 07:00:00 2.8 8 Oeste 23 Oeste 0 954.5 -0.1 58
2020-01-07 06:00:00 3.5 15 Oeste 20 Oeste 0 954.5 0 53
2020-01-07 05:00:00 1.4 3 Oeste 19 Oeste 0 954.9 0.5 66
2020-01-07 04:00:00 5 13 Oeste 21 Oeste 0 954.6 0.4 51
2020-01-07 03:00:00 3.8 13 Oeste 21 Oeste 0 954.5 0 58
2020-01-07 02:00:00 2 3 Noroeste 16 Oeste 0 954.4 0 70
2020-01-07 01:00:00 3.2 4 Noroeste 22 Sudoeste 0 954.2 0.1 65
2020-01-07 00:00:00 4.6 16 Oeste 26 Oeste 0 954.5 0.9 58
2020-01-06 23:00:00 5 12 Oeste 24 Oeste 0 954.4 0.7 57
2020-01-06 22:00:00 5.9 6 Oeste 25 Oeste 0 954.1 1 57
2020-01-06 21:00:00 5.3 15 Oeste 21 Oeste 0 953.6 0.8 59
2020-01-06 20:00:00 4.6 3 Oeste 10 Oeste 0 953.7 1.5 70
2020-01-06 19:00:00 5.6 5 Oeste 10 Oeste 0 953.1 1 68
2020-01-06 18:00:00 8.9 3 Noroeste 9 Nordeste 0 952.8 1.1 61
2020-01-06 17:00:00 12.1 6 Este 12 Este 0 952.2 0.1 47
2020-01-06 16:00:00 13.1 5 Nordeste 15 Nordeste 0 952.1 -0.9 42
2020-01-06 15:00:00 13.8 8 Este 15 Sudeste 0 951.7 -2.3 38
2020-01-06 14:00:00 14.6 6 Este 10 Este 0 952.1 -2.1 34
2020-01-06 13:00:00 14.1 6 Este 11 Este 0 953 -1 32
2020-01-06 12:00:00 13.8 5 Este 10 Sudoeste 0 954 0.2 31
2020-01-06 11:00:00 10.2 4 Sudoeste 19 Sudoeste 0 954.2 1 39
2020-01-06 10:00:00 6.1 9 Oeste 18 Sudoeste 0 954 1.1 46